sensor_id;sensor_type;location;lat;lon;timestamp;temperature;humidity
19567;DHT22;9930;49.240;8.548;2024-01-25T00:00:54;13.00;73.80
19567;DHT22;9930;49.240;8.548;2024-01-25T00:03:26;13.00;73.90
19567;DHT22;9930;49.240;8.548;2024-01-25T00:05:55;13.00;74.00
19567;DHT22;9930;49.240;8.548;2024-01-25T00:08:20;13.00;73.90
19567;DHT22;9930;49.240;8.548;2024-01-25T00:10:46;13.00;73.90
19567;DHT22;9930;49.240;8.548;2024-01-25T00:13:17;13.00;74.00
19567;DHT22;9930;49.240;8.548;2024-01-25T00:15:43;13.00;74.00
19567;DHT22;9930;49.240;8.548;2024-01-25T00:18:08;13.00;74.00
19567;DHT22;9930;49.240;8.548;2024-01-25T00:20:34;13.00;74.00
19567;DHT22;9930;49.240;8.548;2024-01-25T00:23:03;13.00;74.00
19567;DHT22;9930;49.240;8.548;2024-01-25T00:25:28;13.00;74.00
19567;DHT22;9930;49.240;8.548;2024-01-25T00:27:57;13.00;74.00
19567;DHT22;9930;49.240;8.548;2024-01-25T00:30:24;13.00;74.00
19567;DHT22;9930;49.240;8.548;2024-01-25T00:32:52;13.00;74.00
19567;DHT22;9930;49.240;8.548;2024-01-25T00:35:19;13.00;74.00
19567;DHT22;9930;49.240;8.548;2024-01-25T00:37:48;13.00;74.00
19567;DHT22;9930;49.240;8.548;2024-01-25T00:40:17;13.00;74.00
19567;DHT22;9930;49.240;8.548;2024-01-25T00:42:46;13.00;74.00
19567;DHT22;9930;49.240;8.548;2024-01-25T00:45:28;13.00;74.00
19567;DHT22;9930;49.240;8.548;2024-01-25T00:47:56;13.00;74.00
19567;DHT22;9930;49.240;8.548;2024-01-25T00:50:23;13.00;74.00
19567;DHT22;9930;49.240;8.548;2024-01-25T00:52:51;13.00;74.00
19567;DHT22;9930;49.240;8.548;2024-01-25T00:55:20;13.00;74.00
19567;DHT22;9930;49.240;8.548;2024-01-25T00:57:49;13.00;74.00
19567;DHT22;9930;49.240;8.548;2024-01-25T01:00:17;13.00;74.00
19567;DHT22;9930;49.240;8.548;2024-01-25T01:02:46;13.00;74.10
19567;DHT22;9930;49.240;8.548;2024-01-25T01:05:15;13.00;74.00
19567;DHT22;9930;49.240;8.548;2024-01-25T01:07:41;13.00;74.10
19567;DHT22;9930;49.240;8.548;2024-01-25T01:10:08;13.00;74.10
19567;DHT22;9930;49.240;8.548;2024-01-25T01:12:35;13.00;74.10
19567;DHT22;9930;49.240;8.548;2024-01-25T01:15:01;13.00;74.10
19567;DHT22;9930;49.240;8.548;2024-01-25T01:17:26;13.00;74.10
19567;DHT22;9930;49.240;8.548;2024-01-25T01:19:55;13.00;74.20
19567;DHT22;9930;49.240;8.548;2024-01-25T01:22:21;13.00;74.10
19567;DHT22;9930;49.240;8.548;2024-01-25T01:24:49;13.00;74.10
19567;DHT22;9930;49.240;8.548;2024-01-25T01:27:15;13.00;74.20
19567;DHT22;9930;49.240;8.548;2024-01-25T01:29:45;13.00;74.10
19567;DHT22;9930;49.240;8.548;2024-01-25T01:32:14;13.00;74.10
19567;DHT22;9930;49.240;8.548;2024-01-25T01:34:40;13.00;74.10
19567;DHT22;9930;49.240;8.548;2024-01-25T01:37:07;13.00;74.10
19567;DHT22;9930;49.240;8.548;2024-01-25T01:39:33;13.00;74.10
19567;DHT22;9930;49.240;8.548;2024-01-25T01:42:01;13.00;74.10
19567;DHT22;9930;49.240;8.548;2024-01-25T01:44:27;13.00;74.00
19567;DHT22;9930;49.240;8.548;2024-01-25T01:46:55;13.00;74.00
19567;DHT22;9930;49.240;8.548;2024-01-25T01:49:24;12.90;73.90
19567;DHT22;9930;49.240;8.548;2024-01-25T01:51:55;12.90;74.00
19567;DHT22;9930;49.240;8.548;2024-01-25T01:54:20;12.90;73.90
19567;DHT22;9930;49.240;8.548;2024-01-25T01:56:46;12.90;73.90
19567;DHT22;9930;49.240;8.548;2024-01-25T01:59:12;12.90;73.90
19567;DHT22;9930;49.240;8.548;2024-01-25T02:01:38;12.90;73.90
19567;DHT22;9930;49.240;8.548;2024-01-25T02:04:04;12.90;73.90
19567;DHT22;9930;49.240;8.548;2024-01-25T02:06:33;12.90;73.90
19567;DHT22;9930;49.240;8.548;2024-01-25T02:08:59;12.90;73.90
19567;DHT22;9930;49.240;8.548;2024-01-25T02:11:27;12.90;73.90
19567;DHT22;9930;49.240;8.548;2024-01-25T02:13:53;12.90;73.90
19567;DHT22;9930;49.240;8.548;2024-01-25T02:16:19;12.90;73.90
19567;DHT22;9930;49.240;8.548;2024-01-25T02:18:52;12.90;73.90
19567;DHT22;9930;49.240;8.548;2024-01-25T02:21:22;12.80;73.80
19567;DHT22;9930;49.240;8.548;2024-01-25T02:23:51;12.80;73.80
19567;DHT22;9930;49.240;8.548;2024-01-25T02:26:17;12.80;73.80
19567;DHT22;9930;49.240;8.548;2024-01-25T02:28:42;12.80;73.80
19567;DHT22;9930;49.240;8.548;2024-01-25T02:31:08;12.80;73.90
19567;DHT22;9930;49.240;8.548;2024-01-25T02:33:36;12.80;73.80
19567;DHT22;9930;49.240;8.548;2024-01-25T02:36:04;12.80;73.80
19567;DHT22;9930;49.240;8.548;2024-01-25T02:38:30;12.80;73.80
19567;DHT22;9930;49.240;8.548;2024-01-25T02:40:56;12.80;73.80
19567;DHT22;9930;49.240;8.548;2024-01-25T02:43:24;12.80;73.80
19567;DHT22;9930;49.240;8.548;2024-01-25T02:45:55;12.70;73.70
19567;DHT22;9930;49.240;8.548;2024-01-25T02:48:21;12.70;73.70
19567;DHT22;9930;49.240;8.548;2024-01-25T02:50:49;12.70;73.70
19567;DHT22;9930;49.240;8.548;2024-01-25T02:53:17;12.70;73.70
19567;DHT22;9930;49.240;8.548;2024-01-25T02:55:43;12.70;73.70
19567;DHT22;9930;49.240;8.548;2024-01-25T02:58:08;12.70;73.70
19567;DHT22;9930;49.240;8.548;2024-01-25T03:00:34;12.70;73.70
19567;DHT22;9930;49.240;8.548;2024-01-25T03:02:59;12.70;73.70
19567;DHT22;9930;49.240;8.548;2024-01-25T03:05:28;12.70;73.70
19567;DHT22;9930;49.240;8.548;2024-01-25T03:07:53;12.70;73.80
19567;DHT22;9930;49.240;8.548;2024-01-25T03:10:19;12.60;73.80
19567;DHT22;9930;49.240;8.548;2024-01-25T03:12:45;12.70;73.80
19567;DHT22;9930;49.240;8.548;2024-01-25T03:15:11;12.70;73.80
19567;DHT22;9930;49.240;8.548;2024-01-25T03:17:42;12.70;73.90
19567;DHT22;9930;49.240;8.548;2024-01-25T03:20:09;12.60;73.80
19567;DHT22;9930;49.240;8.548;2024-01-25T03:22:35;12.60;73.80
19567;DHT22;9930;49.240;8.548;2024-01-25T03:25:01;12.60;73.80
19567;DHT22;9930;49.240;8.548;2024-01-25T03:27:27;12.60;73.80
19567;DHT22;9930;49.240;8.548;2024-01-25T03:29:57;12.60;73.80
19567;DHT22;9930;49.240;8.548;2024-01-25T03:32:27;12.60;73.80
19567;DHT22;9930;49.240;8.548;2024-01-25T03:34:58;12.60;73.80
19567;DHT22;9930;49.240;8.548;2024-01-25T03:37:25;12.50;73.80
19567;DHT22;9930;49.240;8.548;2024-01-25T03:39:51;12.50;73.80
19567;DHT22;9930;49.240;8.548;2024-01-25T03:42:16;12.50;73.80
19567;DHT22;9930;49.240;8.548;2024-01-25T03:44:45;12.50;73.80
19567;DHT22;9930;49.240;8.548;2024-01-25T03:47:11;12.50;73.80
19567;DHT22;9930;49.240;8.548;2024-01-25T03:49:39;12.50;73.80
19567;DHT22;9930;49.240;8.548;2024-01-25T03:52:07;12.50;73.70
19567;DHT22;9930;49.240;8.548;2024-01-25T03:54:35;12.50;73.70
19567;DHT22;9930;49.240;8.548;2024-01-25T03:57:01;12.50;73.70
19567;DHT22;9930;49.240;8.548;2024-01-25T03:59:26;12.40;73.60
19567;DHT22;9930;49.240;8.548;2024-01-25T04:01:54;12.40;73.60
19567;DHT22;9930;49.240;8.548;2024-01-25T04:04:19;12.40;73.60
19567;DHT22;9930;49.240;8.548;2024-01-25T04:06:45;12.40;73.60
19567;DHT22;9930;49.240;8.548;2024-01-25T04:09:14;12.30;73.60
19567;DHT22;9930;49.240;8.548;2024-01-25T04:11:43;12.30;73.60
19567;DHT22;9930;49.240;8.548;2024-01-25T04:14:08;12.30;73.70
19567;DHT22;9930;49.240;8.548;2024-01-25T04:16:36;12.30;73.70
19567;DHT22;9930;49.240;8.548;2024-01-25T04:19:02;12.20;73.70
19567;DHT22;9930;49.240;8.548;2024-01-25T04:21:30;12.20;73.70
19567;DHT22;9930;49.240;8.548;2024-01-25T04:23:57;12.20;73.70
19567;DHT22;9930;49.240;8.548;2024-01-25T04:26:25;12.20;73.70
19567;DHT22;9930;49.240;8.548;2024-01-25T04:28:51;12.10;73.70
19567;DHT22;9930;49.240;8.548;2024-01-25T04:31:21;12.10;73.70
19567;DHT22;9930;49.240;8.548;2024-01-25T04:33:52;12.10;73.70
19567;DHT22;9930;49.240;8.548;2024-01-25T04:36:20;12.00;73.70
19567;DHT22;9930;49.240;8.548;2024-01-25T04:38:48;12.00;73.70
19567;DHT22;9930;49.240;8.548;2024-01-25T04:41:13;12.00;73.70
19567;DHT22;9930;49.240;8.548;2024-01-25T04:43:39;11.90;73.70
19567;DHT22;9930;49.240;8.548;2024-01-25T04:46:05;11.90;73.70
19567;DHT22;9930;49.240;8.548;2024-01-25T04:48:31;11.90;73.70
19567;DHT22;9930;49.240;8.548;2024-01-25T04:51:01;11.80;74.10
19567;DHT22;9930;49.240;8.548;2024-01-25T04:53:27;11.80;73.80
19567;DHT22;9930;49.240;8.548;2024-01-25T04:55:58;11.70;73.80
19567;DHT22;9930;49.240;8.548;2024-01-25T04:58:26;11.70;73.90
19567;DHT22;9930;49.240;8.548;2024-01-25T05:00:57;11.70;74.00
19567;DHT22;9930;49.240;8.548;2024-01-25T05:03:27;11.60;74.00
19567;DHT22;9930;49.240;8.548;2024-01-25T05:05:58;11.50;74.00
19567;DHT22;9930;49.240;8.548;2024-01-25T05:08:24;11.50;74.10
19567;DHT22;9930;49.240;8.548;2024-01-25T05:10:50;11.50;74.10
19567;DHT22;9930;49.240;8.548;2024-01-25T05:13:15;11.40;74.10
19567;DHT22;9930;49.240;8.548;2024-01-25T05:15:44;11.40;74.20
19567;DHT22;9930;49.240;8.548;2024-01-25T05:18:10;11.40;75.00
19567;DHT22;9930;49.240;8.548;2024-01-25T05:20:35;11.40;74.30
19567;DHT22;9930;49.240;8.548;2024-01-25T05:23:03;11.30;74.30
19567;DHT22;9930;49.240;8.548;2024-01-25T05:25:30;11.30;74.30
19567;DHT22;9930;49.240;8.548;2024-01-25T05:27:56;11.30;74.30
19567;DHT22;9930;49.240;8.548;2024-01-25T05:30:23;11.20;74.30
19567;DHT22;9930;49.240;8.548;2024-01-25T05:32:53;11.30;74.40
19567;DHT22;9930;49.240;8.548;2024-01-25T05:35:20;11.20;74.40
19567;DHT22;9930;49.240;8.548;2024-01-25T05:37:46;11.10;74.40
19567;DHT22;9930;49.240;8.548;2024-01-25T05:40:14;11.10;74.60
19567;DHT22;9930;49.240;8.548;2024-01-25T05:42:45;11.00;74.60
19567;DHT22;9930;49.240;8.548;2024-01-25T05:45:10;11.00;74.70
19567;DHT22;9930;49.240;8.548;2024-01-25T05:47:36;11.00;74.70
19567;DHT22;9930;49.240;8.548;2024-01-25T05:50:05;10.90;74.60
19567;DHT22;9930;49.240;8.548;2024-01-25T05:52:31;10.90;74.70
19567;DHT22;9930;49.240;8.548;2024-01-25T05:54:57;10.90;74.80
19567;DHT22;9930;49.240;8.548;2024-01-25T05:57:27;10.80;74.90
19567;DHT22;9930;49.240;8.548;2024-01-25T05:59:55;10.80;74.90
19567;DHT22;9930;49.240;8.548;2024-01-25T06:02:21;10.80;74.90
19567;DHT22;9930;49.240;8.548;2024-01-25T06:04:47;10.80;75.00
19567;DHT22;9930;49.240;8.548;2024-01-25T06:07:15;10.70;75.00
19567;DHT22;9930;49.240;8.548;2024-01-25T06:09:41;10.70;75.10
19567;DHT22;9930;49.240;8.548;2024-01-25T06:12:07;10.60;75.10
19567;DHT22;9930;49.240;8.548;2024-01-25T06:14:35;10.60;75.30
19567;DHT22;9930;49.240;8.548;2024-01-25T06:17:03;10.60;75.30
19567;DHT22;9930;49.240;8.548;2024-01-25T06:19:32;10.60;75.30
19567;DHT22;9930;49.240;8.548;2024-01-25T06:21:58;10.60;75.40
19567;DHT22;9930;49.240;8.548;2024-01-25T06:24:24;10.50;75.40
19567;DHT22;9930;49.240;8.548;2024-01-25T06:26:56;10.50;75.50
19567;DHT22;9930;49.240;8.548;2024-01-25T06:29:22;10.50;75.60
19567;DHT22;9930;49.240;8.548;2024-01-25T06:31:48;10.40;75.60
19567;DHT22;9930;49.240;8.548;2024-01-25T06:34:16;10.40;75.60
19567;DHT22;9930;49.240;8.548;2024-01-25T06:36:42;10.40;75.70
19567;DHT22;9930;49.240;8.548;2024-01-25T06:39:07;10.40;75.80
19567;DHT22;9930;49.240;8.548;2024-01-25T06:41:34;10.30;75.80
19567;DHT22;9930;49.240;8.548;2024-01-25T06:44:02;10.30;75.90
19567;DHT22;9930;49.240;8.548;2024-01-25T06:46:28;10.30;75.90
19567;DHT22;9930;49.240;8.548;2024-01-25T06:48:54;10.30;76.00
19567;DHT22;9930;49.240;8.548;2024-01-25T06:51:19;10.30;75.90
19567;DHT22;9930;49.240;8.548;2024-01-25T06:53:45;10.30;76.00
19567;DHT22;9930;49.240;8.548;2024-01-25T06:56:11;10.30;76.10
19567;DHT22;9930;49.240;8.548;2024-01-25T06:58:36;10.20;76.00
19567;DHT22;9930;49.240;8.548;2024-01-25T07:01:02;10.20;76.10
19567;DHT22;9930;49.240;8.548;2024-01-25T07:03:31;10.20;76.20
19567;DHT22;9930;49.240;8.548;2024-01-25T07:05:59;10.20;76.10
19567;DHT22;9930;49.240;8.548;2024-01-25T07:08:25;10.20;76.20
19567;DHT22;9930;49.240;8.548;2024-01-25T07:10:51;10.20;76.30
19567;DHT22;9930;49.240;8.548;2024-01-25T07:13:17;10.10;76.30
19567;DHT22;9930;49.240;8.548;2024-01-25T07:15:46;10.10;76.40
19567;DHT22;9930;49.240;8.548;2024-01-25T07:18:14;10.10;76.40
19567;DHT22;9930;49.240;8.548;2024-01-25T07:20:44;10.10;76.40
19567;DHT22;9930;49.240;8.548;2024-01-25T07:23:12;10.10;76.50
19567;DHT22;9930;49.240;8.548;2024-01-25T07:25:40;10.10;76.50
19567;DHT22;9930;49.240;8.548;2024-01-25T07:28:08;10.00;76.50
19567;DHT22;9930;49.240;8.548;2024-01-25T07:30:34;10.00;76.60
19567;DHT22;9930;49.240;8.548;2024-01-25T07:33:00;10.00;76.70
19567;DHT22;9930;49.240;8.548;2024-01-25T07:35:26;10.00;76.80
19567;DHT22;9930;49.240;8.548;2024-01-25T07:37:54;10.00;76.80
19567;DHT22;9930;49.240;8.548;2024-01-25T07:40:23;10.00;76.90
19567;DHT22;9930;49.240;8.548;2024-01-25T07:42:50;10.10;77.00
19567;DHT22;9930;49.240;8.548;2024-01-25T07:45:16;10.00;77.00
19567;DHT22;9930;49.240;8.548;2024-01-25T07:47:44;10.00;77.10
19567;DHT22;9930;49.240;8.548;2024-01-25T07:50:12;10.00;77.10
19567;DHT22;9930;49.240;8.548;2024-01-25T07:52:40;10.10;77.20
19567;DHT22;9930;49.240;8.548;2024-01-25T07:55:09;10.10;77.30
19567;DHT22;9930;49.240;8.548;2024-01-25T07:57:34;10.10;77.30
19567;DHT22;9930;49.240;8.548;2024-01-25T08:00:02;10.10;77.20
19567;DHT22;9930;49.240;8.548;2024-01-25T08:02:29;10.10;77.30
19567;DHT22;9930;49.240;8.548;2024-01-25T08:04:55;10.10;77.30
19567;DHT22;9930;49.240;8.548;2024-01-25T08:07:26;10.10;77.30
19567;DHT22;9930;49.240;8.548;2024-01-25T08:09:53;10.20;77.40
19567;DHT22;9930;49.240;8.548;2024-01-25T08:12:25;10.20;77.50
19567;DHT22;9930;49.240;8.548;2024-01-25T08:14:53;10.20;77.50
19567;DHT22;9930;49.240;8.548;2024-01-25T08:17:19;10.30;77.50
19567;DHT22;9930;49.240;8.548;2024-01-25T08:19:45;10.20;77.50
19567;DHT22;9930;49.240;8.548;2024-01-25T08:22:12;10.30;77.50
19567;DHT22;9930;49.240;8.548;2024-01-25T08:24:45;10.30;77.60
19567;DHT22;9930;49.240;8.548;2024-01-25T08:27:13;10.30;77.60
19567;DHT22;9930;49.240;8.548;2024-01-25T08:29:39;10.30;77.60
19567;DHT22;9930;49.240;8.548;2024-01-25T08:32:07;10.30;77.70
19567;DHT22;9930;49.240;8.548;2024-01-25T08:34:33;10.40;77.70
19567;DHT22;9930;49.240;8.548;2024-01-25T08:37:01;10.40;77.70
19567;DHT22;9930;49.240;8.548;2024-01-25T08:39:32;10.40;77.80
19567;DHT22;9930;49.240;8.548;2024-01-25T08:42:00;10.50;77.90
19567;DHT22;9930;49.240;8.548;2024-01-25T08:44:28;10.50;77.90
19567;DHT22;9930;49.240;8.548;2024-01-25T08:46:54;10.50;77.80
19567;DHT22;9930;49.240;8.548;2024-01-25T08:49:25;10.60;77.90
19567;DHT22;9930;49.240;8.548;2024-01-25T08:51:53;10.60;77.80
19567;DHT22;9930;49.240;8.548;2024-01-25T08:54:21;10.70;78.00
19567;DHT22;9930;49.240;8.548;2024-01-25T08:56:47;10.70;78.00
19567;DHT22;9930;49.240;8.548;2024-01-25T08:59:17;10.80;78.10
19567;DHT22;9930;49.240;8.548;2024-01-25T09:01:43;10.80;78.20
19567;DHT22;9930;49.240;8.548;2024-01-25T09:04:08;10.90;78.20
19567;DHT22;9930;49.240;8.548;2024-01-25T09:06:34;10.90;78.20
19567;DHT22;9930;49.240;8.548;2024-01-25T09:09:02;11.00;78.30
19567;DHT22;9930;49.240;8.548;2024-01-25T09:11:29;11.10;78.40
19567;DHT22;9930;49.240;8.548;2024-01-25T09:13:54;11.10;78.30
19567;DHT22;9930;49.240;8.548;2024-01-25T09:16:20;11.20;78.40
19567;DHT22;9930;49.240;8.548;2024-01-25T09:18:47;11.30;78.50
19567;DHT22;9930;49.240;8.548;2024-01-25T09:21:13;11.40;78.50
19567;DHT22;9930;49.240;8.548;2024-01-25T09:23:41;11.50;78.50
19567;DHT22;9930;49.240;8.548;2024-01-25T09:26:07;11.50;78.50
19567;DHT22;9930;49.240;8.548;2024-01-25T09:28:33;11.60;78.40
19567;DHT22;9930;49.240;8.548;2024-01-25T09:30:58;11.70;78.40
19567;DHT22;9930;49.240;8.548;2024-01-25T09:33:29;11.80;78.40
19567;DHT22;9930;49.240;8.548;2024-01-25T09:35:57;11.90;78.40
19567;DHT22;9930;49.240;8.548;2024-01-25T09:38:28;12.00;78.40
19567;DHT22;9930;49.240;8.548;2024-01-25T09:40:58;12.10;78.20
19567;DHT22;9930;49.240;8.548;2024-01-25T09:43:26;12.20;78.10
19567;DHT22;9930;49.240;8.548;2024-01-25T09:45:56;12.20;77.90
19567;DHT22;9930;49.240;8.548;2024-01-25T09:48:24;12.30;77.70
19567;DHT22;9930;49.240;8.548;2024-01-25T09:50:57;12.40;77.50
19567;DHT22;9930;49.240;8.548;2024-01-25T09:53:27;12.50;77.40
19567;DHT22;9930;49.240;8.548;2024-01-25T09:56:09;12.60;77.30
19567;DHT22;9930;49.240;8.548;2024-01-25T09:58:41;12.60;76.90
19567;DHT22;9930;49.240;8.548;2024-01-25T10:01:19;12.70;77.00
19567;DHT22;9930;49.240;8.548;2024-01-25T10:03:45;12.70;76.70
19567;DHT22;9930;49.240;8.548;2024-01-25T10:06:15;12.80;76.90
19567;DHT22;9930;49.240;8.548;2024-01-25T10:08:43;12.90;76.70
19567;DHT22;9930;49.240;8.548;2024-01-25T10:11:12;13.00;76.60
19567;DHT22;9930;49.240;8.548;2024-01-25T10:13:45;13.00;76.30
19567;DHT22;9930;49.240;8.548;2024-01-25T10:16:18;13.10;76.00
19567;DHT22;9930;49.240;8.548;2024-01-25T10:18:46;13.10;76.10
19567;DHT22;9930;49.240;8.548;2024-01-25T10:21:16;13.10;75.90
19567;DHT22;9930;49.240;8.548;2024-01-25T10:23:44;13.20;75.90
19567;DHT22;9930;49.240;8.548;2024-01-25T10:26:13;13.30;75.80
19567;DHT22;9930;49.240;8.548;2024-01-25T10:28:40;13.30;75.80
19567;DHT22;9930;49.240;8.548;2024-01-25T10:31:08;13.40;75.80
19567;DHT22;9930;49.240;8.548;2024-01-25T10:33:34;13.40;75.60
19567;DHT22;9930;49.240;8.548;2024-01-25T10:36:03;13.50;75.60
19567;DHT22;9930;49.240;8.548;2024-01-25T10:38:34;13.60;75.30
19567;DHT22;9930;49.240;8.548;2024-01-25T10:41:02;13.60;75.10
19567;DHT22;9930;49.240;8.548;2024-01-25T10:43:30;13.70;75.10
19567;DHT22;9930;49.240;8.548;2024-01-25T10:45:56;13.70;75.00
19567;DHT22;9930;49.240;8.548;2024-01-25T10:48:27;13.80;75.00
19567;DHT22;9930;49.240;8.548;2024-01-25T10:50:58;13.90;75.00
19567;DHT22;9930;49.240;8.548;2024-01-25T10:53:33;14.00;74.90
19567;DHT22;9930;49.240;8.548;2024-01-25T10:56:01;14.10;75.00
19567;DHT22;9930;49.240;8.548;2024-01-25T10:58:40;14.20;75.00
19567;DHT22;9930;49.240;8.548;2024-01-25T11:01:10;14.30;74.70
19567;DHT22;9930;49.240;8.548;2024-01-25T11:03:41;14.30;74.70
19567;DHT22;9930;49.240;8.548;2024-01-25T11:06:08;14.50;74.80
19567;DHT22;9930;49.240;8.548;2024-01-25T11:08:35;14.60;74.30
19567;DHT22;9930;49.240;8.548;2024-01-25T11:11:05;14.70;74.30
19567;DHT22;9930;49.240;8.548;2024-01-25T11:13:44;14.70;74.20
19567;DHT22;9930;49.240;8.548;2024-01-25T11:16:16;14.80;73.90
19567;DHT22;9930;49.240;8.548;2024-01-25T11:18:50;14.90;74.00
19567;DHT22;9930;49.240;8.548;2024-01-25T11:21:25;14.90;73.50
19567;DHT22;9930;49.240;8.548;2024-01-25T11:24:21;15.00;73.50
19567;DHT22;9930;49.240;8.548;2024-01-25T11:26:54;15.10;73.00
19567;DHT22;9930;49.240;8.548;2024-01-25T11:29:25;15.10;73.00
19567;DHT22;9930;49.240;8.548;2024-01-25T11:31:56;15.10;72.70
19567;DHT22;9930;49.240;8.548;2024-01-25T11:34:27;15.20;72.70
19567;DHT22;9930;49.240;8.548;2024-01-25T11:36:54;15.20;72.40
19567;DHT22;9930;49.240;8.548;2024-01-25T11:39:20;15.20;72.20
19567;DHT22;9930;49.240;8.548;2024-01-25T11:41:46;15.20;72.00
19567;DHT22;9930;49.240;8.548;2024-01-25T11:44:13;15.10;71.90
19567;DHT22;9930;49.240;8.548;2024-01-25T11:46:39;15.10;71.60
19567;DHT22;9930;49.240;8.548;2024-01-25T11:49:05;15.10;71.60
19567;DHT22;9930;49.240;8.548;2024-01-25T11:51:32;15.10;71.60
19567;DHT22;9930;49.240;8.548;2024-01-25T11:53:59;15.00;71.50
19567;DHT22;9930;49.240;8.548;2024-01-25T11:56:28;15.00;71.60
19567;DHT22;9930;49.240;8.548;2024-01-25T11:58:58;15.10;71.40
19567;DHT22;9930;49.240;8.548;2024-01-25T12:01:28;15.10;71.60
19567;DHT22;9930;49.240;8.548;2024-01-25T12:04:01;15.10;71.80
19567;DHT22;9930;49.240;8.548;2024-01-25T12:06:27;15.10;71.70
19567;DHT22;9930;49.240;8.548;2024-01-25T12:08:54;15.20;71.80
19567;DHT22;9930;49.240;8.548;2024-01-25T12:11:22;15.30;72.00
19567;DHT22;9930;49.240;8.548;2024-01-25T12:13:53;15.30;71.80
19567;DHT22;9930;49.240;8.548;2024-01-25T12:16:24;15.40;71.60
19567;DHT22;9930;49.240;8.548;2024-01-25T12:18:57;15.50;71.50
19567;DHT22;9930;49.240;8.548;2024-01-25T12:21:27;15.60;71.40
19567;DHT22;9930;49.240;8.548;2024-01-25T12:23:52;15.60;71.10
19567;DHT22;9930;49.240;8.548;2024-01-25T12:26:22;15.70;70.60
19567;DHT22;9930;49.240;8.548;2024-01-25T12:28:48;15.70;70.40
19567;DHT22;9930;49.240;8.548;2024-01-25T12:31:15;15.70;70.30
19567;DHT22;9930;49.240;8.548;2024-01-25T12:33:43;15.70;70.20
19567;DHT22;9930;49.240;8.548;2024-01-25T12:36:11;15.70;70.00
19567;DHT22;9930;49.240;8.548;2024-01-25T12:38:39;15.70;69.80
19567;DHT22;9930;49.240;8.548;2024-01-25T12:41:10;15.60;69.60
19567;DHT22;9930;49.240;8.548;2024-01-25T12:43:38;15.60;69.50
19567;DHT22;9930;49.240;8.548;2024-01-25T12:46:04;15.60;69.60
19567;DHT22;9930;49.240;8.548;2024-01-25T12:48:32;15.50;69.80
19567;DHT22;9930;49.240;8.548;2024-01-25T12:50:57;15.50;69.90
19567;DHT22;9930;49.240;8.548;2024-01-25T12:53:28;15.50;69.90
19567;DHT22;9930;49.240;8.548;2024-01-25T12:55:58;15.60;69.60
19567;DHT22;9930;49.240;8.548;2024-01-25T12:58:27;15.60;69.20
19567;DHT22;9930;49.240;8.548;2024-01-25T13:00:53;15.60;68.80
19567;DHT22;9930;49.240;8.548;2024-01-25T13:03:22;15.60;68.80
19567;DHT22;9930;49.240;8.548;2024-01-25T13:05:48;15.50;68.80
19567;DHT22;9930;49.240;8.548;2024-01-25T13:08:14;15.50;68.50
19567;DHT22;9930;49.240;8.548;2024-01-25T13:10:41;15.50;68.50
19567;DHT22;9930;49.240;8.548;2024-01-25T13:13:09;15.40;68.30
19567;DHT22;9930;49.240;8.548;2024-01-25T13:15:35;15.40;68.20
19567;DHT22;9930;49.240;8.548;2024-01-25T13:18:01;15.40;68.10
19567;DHT22;9930;49.240;8.548;2024-01-25T13:20:26;15.30;68.10
19567;DHT22;9930;49.240;8.548;2024-01-25T13:22:52;15.30;68.10
19567;DHT22;9930;49.240;8.548;2024-01-25T13:25:20;15.20;67.90
19567;DHT22;9930;49.240;8.548;2024-01-25T13:27:48;15.10;67.90
19567;DHT22;9930;49.240;8.548;2024-01-25T13:30:16;15.10;67.90
19567;DHT22;9930;49.240;8.548;2024-01-25T13:32:41;15.00;67.90
19567;DHT22;9930;49.240;8.548;2024-01-25T13:35:07;15.00;68.00
19567;DHT22;9930;49.240;8.548;2024-01-25T13:37:38;14.90;68.00
19567;DHT22;9930;49.240;8.548;2024-01-25T13:40:06;14.90;68.00
19567;DHT22;9930;49.240;8.548;2024-01-25T13:42:32;14.90;68.00
19567;DHT22;9930;49.240;8.548;2024-01-25T13:45:02;14.80;68.10
19567;DHT22;9930;49.240;8.548;2024-01-25T13:47:31;14.80;68.10
19567;DHT22;9930;49.240;8.548;2024-01-25T13:49:57;14.80;68.30
19567;DHT22;9930;49.240;8.548;2024-01-25T13:52:23;14.70;69.00
19567;DHT22;9930;49.240;8.548;2024-01-25T13:54:50;14.70;68.50
19567;DHT22;9930;49.240;8.548;2024-01-25T13:57:16;14.70;68.60
19567;DHT22;9930;49.240;8.548;2024-01-25T13:59:42;14.70;68.70
19567;DHT22;9930;49.240;8.548;2024-01-25T14:02:10;14.70;68.60
19567;DHT22;9930;49.240;8.548;2024-01-25T14:04:36;14.70;68.60
19567;DHT22;9930;49.240;8.548;2024-01-25T14:07:02;14.70;68.70
19567;DHT22;9930;49.240;8.548;2024-01-25T14:09:28;14.80;68.80
19567;DHT22;9930;49.240;8.548;2024-01-25T14:11:56;14.70;68.70
19567;DHT22;9930;49.240;8.548;2024-01-25T14:14:22;14.70;68.70
19567;DHT22;9930;49.240;8.548;2024-01-25T14:16:48;14.80;68.70
19567;DHT22;9930;49.240;8.548;2024-01-25T14:19:14;14.70;68.60
19567;DHT22;9930;49.240;8.548;2024-01-25T14:21:40;14.70;68.60
19567;DHT22;9930;49.240;8.548;2024-01-25T14:24:05;14.70;68.60
19567;DHT22;9930;49.240;8.548;2024-01-25T14:26:31;14.70;68.60
19567;DHT22;9930;49.240;8.548;2024-01-25T14:29:01;14.70;68.60
19567;DHT22;9930;49.240;8.548;2024-01-25T14:31:29;14.60;68.50
19567;DHT22;9930;49.240;8.548;2024-01-25T14:33:55;14.60;68.60
19567;DHT22;9930;49.240;8.548;2024-01-25T14:36:26;14.60;68.50
19567;DHT22;9930;49.240;8.548;2024-01-25T14:38:57;14.60;68.70
19567;DHT22;9930;49.240;8.548;2024-01-25T14:41:22;14.50;68.60
19567;DHT22;9930;49.240;8.548;2024-01-25T14:43:48;14.50;68.80
19567;DHT22;9930;49.240;8.548;2024-01-25T14:46:14;14.50;68.80
19567;DHT22;9930;49.240;8.548;2024-01-25T14:48:40;14.50;68.90
19567;DHT22;9930;49.240;8.548;2024-01-25T14:51:06;14.40;69.00
19567;DHT22;9930;49.240;8.548;2024-01-25T14:53:34;14.40;69.10
19567;DHT22;9930;49.240;8.548;2024-01-25T14:56:00;14.40;69.00
19567;DHT22;9930;49.240;8.548;2024-01-25T14:58:26;14.40;69.10
19567;DHT22;9930;49.240;8.548;2024-01-25T15:00:57;14.40;69.10
19567;DHT22;9930;49.240;8.548;2024-01-25T15:03:26;14.30;69.10
19567;DHT22;9930;49.240;8.548;2024-01-25T15:05:55;14.40;69.10
19567;DHT22;9930;49.240;8.548;2024-01-25T15:08:26;14.30;69.20
19567;DHT22;9930;49.240;8.548;2024-01-25T15:10:56;14.30;69.20
19567;DHT22;9930;49.240;8.548;2024-01-25T15:13:21;14.20;69.20
19567;DHT22;9930;49.240;8.548;2024-01-25T15:15:50;14.20;69.20
19567;DHT22;9930;49.240;8.548;2024-01-25T15:18:20;14.20;69.40
19567;DHT22;9930;49.240;8.548;2024-01-25T15:20:49;14.20;69.40
19567;DHT22;9930;49.240;8.548;2024-01-25T15:23:16;14.20;69.40
19567;DHT22;9930;49.240;8.548;2024-01-25T15:25:44;14.20;69.60
19567;DHT22;9930;49.240;8.548;2024-01-25T15:28:10;14.10;69.60
19567;DHT22;9930;49.240;8.548;2024-01-25T15:30:38;14.10;69.70
19567;DHT22;9930;49.240;8.548;2024-01-25T15:33:08;14.10;69.80
19567;DHT22;9930;49.240;8.548;2024-01-25T15:35:34;14.10;70.00
19567;DHT22;9930;49.240;8.548;2024-01-25T15:37:59;14.10;70.10
19567;DHT22;9930;49.240;8.548;2024-01-25T15:40:31;14.00;70.00
19567;DHT22;9930;49.240;8.548;2024-01-25T15:42:59;14.00;70.20
19567;DHT22;9930;49.240;8.548;2024-01-25T15:45:25;14.00;70.30
19567;DHT22;9930;49.240;8.548;2024-01-25T15:47:59;14.00;70.30